Time;durP1;ratioP1;P1;durP2;ratioP2;P2;SDS_P1;SDS_P2;PMS_P1;PMS_P2;Temp;Humidity;BMP_temperature;BMP_pressure;BME280_temperature;BME280_humidity;BME280_pressure;Samples;Min_cycle;Max_cycle;Signal;HPM_P1;HPM_P2
2021/11/15 00:02:21;;;;;;;;;9.50;9.50;;;;;21.99;41.09;101949.53;4955188;28;50965;-52
2021/11/15 00:04:46;;;;;;;;;8.25;7.50;;;;;21.96;40.87;101951.84;4954793;28;51128;-49
2021/11/15 00:07:12;;;;;;;;;7.00;7.00;;;;;21.93;41.51;101946.75;4969546;28;51291;-53
2021/11/15 00:09:38;;;;;;;;;7.00;6.25;;;;;21.90;41.02;101953.53;4955077;28;51840;-53
2021/11/15 00:12:03;;;;;;;;;9.25;9.25;;;;;21.86;41.42;101952.22;4956549;28;51179;-52
2021/11/15 00:14:29;;;;;;;;;10.75;9.00;;;;;21.82;41.44;101946.28;4957731;28;51386;-51
2021/11/15 00:16:55;;;;;;;;;10.50;8.00;;;;;21.80;41.63;101948.38;4973647;28;51389;-51
2021/11/15 00:19:21;;;;;;;;;12.25;9.50;;;;;21.77;41.54;101946.03;4970003;28;51703;-52
2021/11/15 00:21:46;;;;;;;;;9.25;9.25;;;;;21.73;41.42;101950.25;4963079;28;51117;-48
2021/11/15 00:24:12;;;;;;;;;7.75;7.75;;;;;21.71;41.41;101946.84;4969394;28;51578;-53
2021/11/15 00:26:37;;;;;;;;;10.50;10.50;;;;;21.70;41.42;101947.06;4959252;28;51323;-51
2021/11/15 00:29:03;;;;;;;;;12.25;9.25;;;;;21.67;41.20;101947.44;4956571;28;51102;-49
2021/11/15 00:31:28;;;;;;;;;8.50;7.50;;;;;21.64;41.64;101940.44;4955226;28;51018;-52
2021/11/15 00:33:54;;;;;;;;;9.25;9.25;;;;;21.62;41.65;101950.81;4954921;28;50987;-52
2021/11/15 00:36:21;;;;;;;;;10.25;9.25;;;;;21.59;41.32;101952.09;4955837;28;51372;-50
2021/11/15 00:38:47;;;;;;;;;10.75;8.00;;;;;21.58;41.56;101955.06;4955164;28;51009;-51
2021/11/15 00:41:13;;;;;;;;;10.50;9.75;;;;;21.56;41.05;101948.88;4955203;28;51140;-51
2021/11/15 00:43:38;;;;;;;;;11.00;8.75;;;;;21.53;41.20;101947.38;4966461;28;51133;-50
2021/11/15 00:46:04;;;;;;;;;12.75;9.25;;;;;21.51;41.57;101948.66;4954364;28;50961;-53
2021/11/15 00:48:30;;;;;;;;;11.25;10.50;;;;;21.50;41.64;101952.47;4954648;28;51120;-51
2021/11/15 00:50:56;;;;;;;;;9.75;9.50;;;;;21.48;41.62;101949.91;4956551;28;51098;-48
2021/11/15 00:53:21;;;;;;;;;10.75;10.00;;;;;21.45;41.68;101950.28;4954780;28;51102;-51
2021/11/15 00:55:47;;;;;;;;;9.00;9.00;;;;;21.44;41.14;101953.25;4961792;28;51365;-50
2021/11/15 00:58:13;;;;;;;;;12.00;10.75;;;;;21.41;41.31;101960.03;4954605;28;51931;-48
2021/11/15 01:00:41;;;;;;;;;9.25;8.75;;;;;21.40;41.60;101957.47;4955790;28;50971;-52
2021/11/15 01:03:09;;;;;;;;;12.25;9.00;;;;;21.38;41.55;101954.09;4974411;28;50970;-53
2021/11/15 01:05:35;;;;;;;;;7.25;7.25;;;;;21.36;41.57;101957.00;4969747;28;51278;-52
2021/11/15 01:08:02;;;;;;;;;9.25;8.25;;;;;21.34;41.70;101956.38;4973971;28;51156;-52
2021/11/15 01:10:27;;;;;;;;;10.75;10.25;;;;;21.32;41.72;101964.84;4974100;28;51288;-51
2021/11/15 01:12:52;;;;;;;;;11.00;8.00;;;;;21.31;41.44;101962.28;4968313;28;51126;-49
2021/11/15 01:15:21;;;;;;;;;6.50;6.50;;;;;21.29;41.19;101959.75;4967272;28;51267;-51
2021/11/15 01:17:49;;;;;;;;;6.00;5.75;;;;;21.28;41.25;101960.78;4968614;28;52073;-50
2021/11/15 01:20:16;;;;;;;;;4.00;4.00;;;;;21.26;41.37;101964.81;4954437;28;51091;-52
2021/11/15 01:22:42;;;;;;;;;10.00;9.00;;;;;21.25;41.26;101963.03;4955707;28;51176;-51
2021/11/15 01:25:08;;;;;;;;;8.00;8.00;;;;;21.23;41.52;101962.41;4966349;28;51275;-52
2021/11/15 01:27:34;;;;;;;;;9.50;8.00;;;;;21.22;41.34;101963.47;4983896;28;53970;-47
2021/11/15 01:30:00;;;;;;;;;8.25;7.75;;;;;21.20;41.97;101954.53;4973143;28;51125;-51
2021/11/15 01:32:25;;;;;;;;;9.25;8.75;;;;;21.18;41.60;101963.03;4959222;28;51500;-53
2021/11/15 01:34:51;;;;;;;;;8.00;8.00;;;;;21.17;41.13;101963.22;4965544;28;51410;-48
2021/11/15 01:37:17;;;;;;;;;9.25;8.50;;;;;21.15;41.73;101963.41;4972856;28;52725;-48
2021/11/15 01:39:43;;;;;;;;;7.25;7.25;;;;;21.14;41.37;101961.69;4988855;27;51023;-51
2021/11/15 01:42:09;;;;;;;;;8.75;7.25;;;;;21.12;41.41;101965.72;4963044;28;50998;-50
2021/11/15 01:44:35;;;;;;;;;8.00;8.00;;;;;21.11;41.41;101959.34;4967436;28;51059;-49
2021/11/15 01:47:01;;;;;;;;;8.00;8.00;;;;;21.10;41.38;101963.16;4954623;28;51285;-48
2021/11/15 01:49:26;;;;;;;;;9.00;7.00;;;;;21.09;41.44;101966.97;4957767;28;51005;-53
2021/11/15 01:51:52;;;;;;;;;8.75;8.75;;;;;21.07;41.28;101969.06;4968422;28;51441;-50
2021/11/15 01:54:18;;;;;;;;;11.00;8.00;;;;;21.06;41.44;101958.25;4959309;28;51254;-50
2021/11/15 01:56:43;;;;;;;;;11.50;9.75;;;;;21.04;41.40;101955.69;4953886;28;51220;-51
2021/11/15 01:59:09;;;;;;;;;8.50;8.00;;;;;21.02;41.76;101955.88;4969187;28;50970;-52
2021/11/15 02:01:34;;;;;;;;;10.25;8.00;;;;;21.02;41.81;101957.78;4964986;28;51116;-50
2021/11/15 02:04:00;;;;;;;;;11.50;9.25;;;;;21.02;41.78;101955.03;4957402;28;51411;-52
2021/11/15 02:06:26;;;;;;;;;11.75;9.25;;;;;20.99;41.92;101955.44;4956651;28;51068;-53
2021/11/15 02:08:52;;;;;;;;;8.75;7.75;;;;;20.98;41.33;101962.00;4956770;28;51178;-51
2021/11/15 02:11:19;;;;;;;;;8.75;6.75;;;;;20.98;41.52;101960.09;4957427;28;51243;-50
2021/11/15 02:13:45;;;;;;;;;7.25;7.25;;;;;20.95;41.49;101962.41;4966873;28;51660;-49
2021/11/15 02:16:11;;;;;;;;;8.25;6.50;;;;;20.94;41.84;101960.69;4965894;28;51443;-49
2021/11/15 02:18:36;;;;;;;;;10.25;8.00;;;;;20.93;41.86;101958.97;4975672;28;51441;-50
2021/11/15 02:21:07;;;;;;;;;9.50;8.00;;;;;20.91;41.69;101963.84;4974197;28;50936;-52
2021/11/15 02:23:41;;;;;;;;;8.50;7.75;;;;;20.90;41.84;101976.75;4968886;28;51291;-51
2021/11/15 02:26:09;;;;;;;;;5.75;5.25;;;;;20.89;41.58;101968.69;4963748;28;52168;-51
2021/11/15 02:28:40;;;;;;;;;7.00;7.00;;;;;20.88;41.27;101965.09;4986470;28;51053;-52
2021/11/15 02:31:07;;;;;;;;;7.00;7.00;;;;;20.86;41.54;101950.69;4971326;28;51204;-53
2021/11/15 02:33:32;;;;;;;;;8.75;8.50;;;;;20.86;41.56;101955.34;4969244;28;51017;-52
2021/11/15 02:35:59;;;;;;;;;12.00;10.00;;;;;20.85;41.37;101962.75;4956233;28;51827;-51
2021/11/15 02:38:25;;;;;;;;;10.00;7.50;;;;;20.84;41.87;101961.03;4956517;28;51334;-53
2021/11/15 02:40:51;;;;;;;;;7.25;7.25;;;;;20.83;41.44;101955.72;4956489;28;51273;-51
2021/11/15 02:43:16;;;;;;;;;6.75;5.25;;;;;20.82;42.01;101949.34;4971903;28;51209;-52
2021/11/15 02:45:42;;;;;;;;;6.00;6.00;;;;;20.80;41.42;101956.97;4966374;28;51083;-51
2021/11/15 02:48:07;;;;;;;;;7.25;7.25;;;;;20.80;41.71;101954.22;4960608;28;51246;-53
2021/11/15 02:50:34;;;;;;;;;8.25;7.50;;;;;20.78;41.95;101964.56;4964444;28;51093;-48
2021/11/15 02:53:06;;;;;;;;;8.25;6.00;;;;;20.77;41.96;101971.13;4974676;28;51266;-52
2021/11/15 02:55:32;;;;;;;;;8.50;7.75;;;;;20.75;41.94;101963.06;4973452;28;51118;-52
2021/11/15 02:58:01;;;;;;;;;7.00;7.00;;;;;20.75;41.86;101964.97;4974464;28;51384;-50
2021/11/15 03:00:35;;;;;;;;;9.25;9.00;;;;;20.74;41.46;101963.28;4968581;28;51232;-51
2021/11/15 03:03:00;;;;;;;;;8.00;7.25;;;;;20.72;41.61;101960.69;4963563;28;51342;-52
2021/11/15 03:05:29;;;;;;;;;8.25;8.25;;;;;20.71;41.71;101961.75;4964974;28;52149;-52
2021/11/15 03:07:55;;;;;;;;;10.75;7.75;;;;;20.71;41.77;101972.75;4971265;28;51478;-52
2021/11/15 03:10:21;;;;;;;;;7.50;6.75;;;;;20.69;41.53;101969.34;4975234;28;51014;-49
2021/11/15 03:12:47;;;;;;;;;12.75;9.75;;;;;20.68;41.44;101970.41;4966087;28;51354;-52
2021/11/15 03:15:26;;;;;;;;;8.25;7.25;;;;;20.69;41.42;101974.00;4958755;28;51881;-50
2021/11/15 03:17:59;;;;;;;;;8.50;7.75;;;;;20.66;41.62;101964.25;4958720;28;51151;-49
2021/11/15 03:20:27;;;;;;;;;8.00;7.50;;;;;20.64;41.71;101960.84;4968082;28;51030;-53
2021/11/15 03:22:52;;;;;;;;;9.00;9.00;;;;;20.64;41.62;101966.34;4974908;28;51355;-50
2021/11/15 03:25:18;;;;;;;;;8.75;8.25;;;;;20.63;41.42;101961.03;4964868;28;52668;-50
2021/11/15 03:27:43;;;;;;;;;8.25;8.25;;;;;20.62;41.52;101970.34;4979506;28;51164;-52
2021/11/15 03:30:09;;;;;;;;;9.00;7.25;;;;;20.62;41.43;101975.84;4973980;28;51078;-53
2021/11/15 03:32:37;;;;;;;;;8.25;6.50;;;;;20.60;41.56;101978.78;4974593;28;51341;-47
2021/11/15 03:35:03;;;;;;;;;8.00;8.00;;;;;20.60;41.29;101966.94;4975013;28;50912;-49
2021/11/15 03:37:30;;;;;;;;;9.50;8.75;;;;;20.58;41.76;101974.53;4965409;28;51311;-51
2021/11/15 03:39:55;;;;;;;;;7.00;7.00;;;;;20.57;41.59;101970.94;4955904;28;51180;-51
2021/11/15 03:42:23;;;;;;;;;8.00;7.75;;;;;20.56;41.47;101971.97;4957307;28;51105;-48
2021/11/15 03:44:48;;;;;;;;;8.25;6.50;;;;;20.57;41.36;101968.19;4972479;28;51910;-49
2021/11/15 03:47:13;;;;;;;;;7.75;7.25;;;;;20.55;41.38;101959.28;4985556;28;51266;-48
2021/11/15 03:49:39;;;;;;;;;11.25;8.75;;;;;20.54;41.80;101962.22;4959877;28;51380;-47
2021/11/15 03:52:04;;;;;;;;;8.25;7.00;;;;;20.54;41.54;101956.72;4956706;28;51317;-49
2021/11/15 03:54:29;;;;;;;;;8.00;7.25;;;;;20.52;41.64;101962.41;4954929;28;51442;-52
2021/11/15 03:56:55;;;;;;;;;10.00;9.00;;;;;20.52;41.57;101958.78;4969368;28;51556;-47
2021/11/15 03:59:20;;;;;;;;;9.50;8.50;;;;;20.51;41.87;101968.09;4973160;28;51669;-51
2021/11/15 04:01:46;;;;;;;;;10.25;9.50;;;;;20.49;42.03;101976.56;4963686;28;51038;-50
2021/11/15 04:04:17;;;;;;;;;7.50;7.50;;;;;20.48;42.03;101969.34;4954624;28;51091;-48
2021/11/15 04:06:50;;;;;;;;;8.75;8.75;;;;;20.46;42.00;101969.56;4958043;28;51122;-47
2021/11/15 04:09:16;;;;;;;;;10.75;8.25;;;;;20.46;41.93;101974.19;4963404;28;51192;-48
2021/11/15 04:11:43;;;;;;;;;12.25;9.25;;;;;20.45;41.89;101975.25;4963229;28;51119;-51
2021/11/15 04:14:15;;;;;;;;;10.25;9.25;;;;;20.44;41.66;101966.16;4954784;28;50992;-49
2021/11/15 04:16:43;;;;;;;;;9.50;9.50;;;;;20.44;41.99;101970.81;4962134;28;51053;-51
2021/11/15 04:19:13;;;;;;;;;9.50;8.25;;;;;20.43;41.55;101969.09;4957223;28;51022;-47
2021/11/15 04:21:40;;;;;;;;;7.75;7.75;;;;;20.42;41.45;101968.22;4955098;28;51262;-51
2021/11/15 04:24:07;;;;;;;;;9.75;9.75;;;;;20.41;41.70;101966.47;4955117;28;51173;-52
2021/11/15 04:26:33;;;;;;;;;11.75;10.25;;;;;20.40;41.85;101963.94;4976004;28;51276;-50
2021/11/15 04:28:59;;;;;;;;;8.50;8.50;;;;;20.40;41.85;101963.94;4994255;28;51104;-52
2021/11/15 04:31:25;;;;;;;;;10.25;9.00;;;;;20.40;41.37;101961.19;4973000;28;51129;-50
2021/11/15 04:33:51;;;;;;;;;14.00;8.00;;;;;20.38;41.61;101961.38;4968997;28;52717;-50
2021/11/15 04:36:16;;;;;;;;;8.50;8.50;;;;;20.37;41.95;101964.31;4959804;28;51064;-51
2021/11/15 04:38:41;;;;;;;;;12.25;9.00;;;;;20.37;41.60;101961.56;4962846;28;51096;-52
2021/11/15 04:41:07;;;;;;;;;9.00;8.00;;;;;20.36;41.69;101965.38;4955148;28;50964;-51
2021/11/15 04:43:33;;;;;;;;;13.50;8.25;;;;;20.35;41.87;101959.03;4970975;28;51103;-50
2021/11/15 04:45:58;;;;;;;;;8.00;6.50;;;;;20.34;41.79;101951.81;4965834;28;51067;-48
2021/11/15 04:48:25;;;;;;;;;8.50;8.50;;;;;20.34;41.92;101950.97;4957528;28;51105;-50
2021/11/15 04:50:50;;;;;;;;;8.25;7.75;;;;;20.33;41.85;101944.63;4959935;28;50984;-48
2021/11/15 04:53:16;;;;;;;;;10.00;8.25;;;;;20.34;41.82;101945.47;4965602;28;51140;-50
2021/11/15 04:55:41;;;;;;;;;8.75;7.75;;;;;20.32;41.55;101937.41;4974017;28;51026;-51
2021/11/15 04:58:07;;;;;;;;;12.50;9.00;;;;;20.31;41.75;101949.44;4960245;28;51267;-51
2021/11/15 05:00:34;;;;;;;;;9.75;9.75;;;;;20.30;41.94;101944.13;4958093;28;51197;-48
2021/11/15 05:03:00;;;;;;;;;11.00;8.25;;;;;20.29;41.77;101950.69;4970851;28;51127;-47
2021/11/15 05:05:26;;;;;;;;;7.75;7.75;;;;;20.28;41.69;101946.22;4956989;28;51036;-51
2021/11/15 05:07:53;;;;;;;;;8.75;8.75;;;;;20.28;42.01;101952.59;4954475;28;51073;-50
2021/11/15 05:10:20;;;;;;;;;14.00;8.50;;;;;20.28;41.55;101946.22;4954951;28;50966;-50
2021/11/15 05:12:46;;;;;;;;;9.75;9.00;;;;;20.27;41.66;101939.03;4964458;28;51140;-52
2021/11/15 05:15:14;;;;;;;;;10.00;10.00;;;;;20.26;41.89;101956.59;4972399;28;51196;-50
2021/11/15 05:17:40;;;;;;;;;11.25;9.75;;;;;20.26;41.67;101951.09;4961635;28;51196;-52
2021/11/15 05:20:08;;;;;;;;;12.50;8.50;;;;;20.26;41.94;101948.31;4963915;28;52664;-50
2021/11/15 05:22:35;;;;;;;;;10.00;9.00;;;;;20.26;41.67;101951.09;4958930;28;52240;-50
2021/11/15 05:25:00;;;;;;;;;12.00;10.50;;;;;20.24;41.59;101951.28;4956282;28;51050;-52
2021/11/15 05:27:26;;;;;;;;;9.00;8.00;;;;;20.24;41.80;101955.94;4960959;28;51116;-53
2021/11/15 05:29:51;;;;;;;;;10.50;10.50;;;;;20.23;42.00;101956.97;4962364;28;51390;-52
2021/11/15 05:32:17;;;;;;;;;11.75;11.75;;;;;20.22;41.69;101952.50;4969693;28;51492;-50
2021/11/15 05:34:42;;;;;;;;;9.25;7.25;;;;;20.21;41.93;101954.41;4959173;28;51227;-52
2021/11/15 05:37:08;;;;;;;;;9.75;9.00;;;;;20.19;41.60;101957.34;4964202;28;51066;-47
2021/11/15 05:39:33;;;;;;;;;7.50;7.25;;;;;20.19;42.18;101960.09;4972134;28;51402;-53
2021/11/15 05:41:59;;;;;;;;;19.00;17.25;;;;;20.18;41.40;101969.41;4983799;28;52546;-52
2021/11/15 05:44:26;;;;;;;;;18.25;14.00;;;;;20.17;40.73;101973.19;4971754;28;51129;-53
2021/11/15 05:46:52;;;;;;;;;20.50;20.00;;;;;20.14;40.95;101973.59;4959827;28;51065;-51
2021/11/15 05:49:17;;;;;;;;;29.75;27.75;;;;;20.12;40.20;101975.69;4958648;28;51408;-52
2021/11/15 05:51:43;;;;;;;;;26.00;23.75;;;;;20.08;39.90;101979.84;4962346;28;52013;-52
2021/11/15 05:54:08;;;;;;;;;24.25;21.50;;;;;20.04;40.14;101974.94;4959679;28;51113;-53
2021/11/15 05:56:34;;;;;;;;;24.75;23.00;;;;;20.01;39.82;101992.69;4965785;28;51470;-51
2021/11/15 05:58:59;;;;;;;;;32.25;25.00;;;;;19.95;39.71;101987.94;4956960;28;50982;-52
2021/11/15 06:01:25;;;;;;;;;26.75;22.75;;;;;19.92;39.42;101987.47;4956774;28;51805;-50
2021/11/15 06:03:50;;;;;;;;;26.50;23.00;;;;;19.87;39.58;101985.28;4957163;28;51219;-53
2021/11/15 06:06:15;;;;;;;;;29.75;27.25;;;;;19.83;39.54;101984.81;4958766;28;51408;-51
2021/11/15 06:08:41;;;;;;;;;20.25;18.50;;;;;19.80;39.50;101984.34;4971133;28;51247;-50
2021/11/15 06:11:06;;;;;;;;;22.50;18.75;;;;;19.82;40.03;101976.78;4951571;28;52913;-52
2021/11/15 06:13:32;;;;;;;;;27.00;22.25;;;;;19.88;39.44;101973.25;4962039;28;51779;-48
2021/11/15 06:15:57;;;;;;;;;21.25;19.00;;;;;19.96;39.60;101983.28;4952565;28;51022;-46
2021/11/15 06:18:23;;;;;;;;;14.50;12.25;;;;;20.02;39.51;101977.88;4970119;28;51240;-51
2021/11/15 06:20:48;;;;;;;;;14.75;14.75;;;;;20.10;39.78;101988.75;4963550;28;51950;-50
2021/11/15 06:23:14;;;;;;;;;13.00;12.50;;;;;20.19;39.95;101995.00;4959847;28;51153;-51
2021/11/15 06:25:40;;;;;;;;;19.00;15.00;;;;;20.26;39.71;101987.69;4965591;28;51330;-52
2021/11/15 06:28:06;;;;;;;;;13.00;12.50;;;;;20.33;39.63;101990.53;4984527;28;51024;-51
2021/11/15 06:30:31;;;;;;;;;10.75;10.00;;;;;20.40;39.82;101994.19;4951511;28;52132;-52
2021/11/15 06:32:57;;;;;;;;;11.75;10.75;;;;;20.45;39.63;101992.63;4961616;28;51232;-53
2021/11/15 06:35:26;;;;;;;;;14.00;12.25;;;;;20.52;39.69;101989.91;4962716;28;51165;-52
2021/11/15 06:37:51;;;;;;;;;10.25;9.00;;;;;20.60;39.55;101995.31;4955428;28;51085;-52
2021/11/15 06:40:17;;;;;;;;;11.00;10.00;;;;;20.65;39.87;101995.59;4958775;28;51805;-50
2021/11/15 06:42:43;;;;;;;;;9.75;9.75;;;;;20.73;39.47;102000.09;4956137;28;51146;-52
2021/11/15 06:45:09;;;;;;;;;12.50;12.25;;;;;20.78;39.42;101997.63;4971465;28;51101;-51
2021/11/15 06:47:36;;;;;;;;;10.50;9.00;;;;;20.85;39.71;102008.72;4967301;28;51258;-50
2021/11/15 06:50:04;;;;;;;;;13.00;11.50;;;;;20.91;39.87;102008.75;4959828;28;53023;-49
2021/11/15 06:52:29;;;;;;;;;12.50;10.00;;;;;20.96;39.63;102003.53;4961470;28;51199;-49
2021/11/15 06:54:55;;;;;;;;;15.00;10.00;;;;;21.03;39.50;102014.59;4958154;28;51222;-48
2021/11/15 06:57:20;;;;;;;;;15.25;12.50;;;;;21.08;39.64;102009.34;4963068;28;52554;-46
2021/11/15 06:59:46;;;;;;;;;8.25;8.25;;;;;21.14;39.28;102007.69;4965995;28;51152;-48
2021/11/15 07:02:11;;;;;;;;;13.25;12.00;;;;;21.14;40.15;102014.03;4954934;28;51168;-48
2021/11/15 07:04:36;;;;;;;;;11.50;10.00;;;;;21.15;39.72;102024.00;4958501;28;51660;-46
2021/11/15 07:07:02;;;;;;;;;11.75;8.00;;;;;21.19;40.68;102016.22;4961838;27;52127;-48
2021/11/15 07:09:29;;;;;;;;;9.50;9.50;;;;;21.22;40.17;102026.84;4969569;28;53122;-48
2021/11/15 07:11:55;;;;;;;;;11.50;10.25;;;;;21.28;40.43;102032.44;4965966;28;51173;-48
2021/11/15 07:14:21;;;;;;;;;10.00;8.50;;;;;21.33;40.41;102024.41;4954023;28;51372;-43
2021/11/15 07:16:47;;;;;;;;;10.25;9.00;;;;;21.39;41.22;102038.47;4966302;28;51072;-44
2021/11/15 07:19:13;;;;;;;;;12.25;10.75;;;;;21.43;40.55;102042.53;4959605;28;52232;-44
2021/11/15 07:21:38;;;;;;;;;12.00;9.00;;;;;21.47;41.18;102041.94;4957496;28;51021;-48
2021/11/15 07:24:04;;;;;;;;;12.50;11.50;;;;;21.52;40.14;102041.31;4963164;28;50969;-47
2021/11/15 07:26:30;;;;;;;;;13.25;11.75;;;;;21.57;40.29;102044.31;4971251;28;51619;-45
2021/11/15 07:28:56;;;;;;;;;12.25;10.25;;;;;21.61;40.53;102042.88;4954928;28;51340;-44
2021/11/15 07:31:23;;;;;;;;;18.25;13.00;;;;;21.64;40.49;102031.44;4955361;28;51097;-45
2021/11/15 07:33:48;;;;;;;;;13.50;12.50;;;;;21.68;41.28;102038.28;4953018;28;51275;-44
2021/11/15 07:36:15;;;;;;;;;15.25;13.50;;;;;21.72;40.47;102045.06;4968587;28;51322;-44
2021/11/15 07:38:41;;;;;;;;;22.25;16.00;;;;;21.77;40.69;102041.69;4972445;28;52025;-45
2021/11/15 07:41:07;;;;;;;;;16.75;16.25;;;;;21.81;40.95;102038.34;4959829;28;51035;-43
2021/11/15 07:43:32;;;;;;;;;17.25;13.00;;;;;21.87;40.52;102042.19;4958624;28;51266;-43
2021/11/15 07:46:01;;;;;;;;;14.00;11.75;;;;;21.89;40.23;102046.47;4962528;28;51040;-42
2021/11/15 07:48:28;;;;;;;;;19.25;15.25;;;;;21.90;39.62;102048.16;4954360;28;51486;-43
2021/11/15 07:50:55;;;;;;;;;14.50;12.25;;;;;21.92;39.49;102052.63;4964106;28;51554;-46
2021/11/15 07:53:20;;;;;;;;;18.75;14.75;;;;;21.89;39.89;102063.03;4973651;28;51277;-46
2021/11/15 07:55:46;;;;;;;;;14.00;12.25;;;;;21.87;40.23;102056.84;4960097;28;51235;-43
2021/11/15 07:58:13;;;;;;;;;17.25;13.25;;;;;21.85;39.93;102069.13;4955668;28;52296;-43
2021/11/15 08:00:39;;;;;;;;;16.50;14.50;;;;;21.82;39.89;102056.59;4957683;28;51337;-43
2021/11/15 08:03:06;;;;;;;;;18.50;15.25;;;;;21.76;39.31;102062.91;4955151;28;51042;-44
2021/11/15 08:05:32;;;;;;;;;15.50;14.50;;;;;21.71;39.83;102064.59;4959277;28;51276;-46
2021/11/15 08:07:58;;;;;;;;;9.50;9.50;;;;;21.65;39.60;102063.47;4956300;28;51823;-48
2021/11/15 08:10:23;;;;;;;;;20.00;13.75;;;;;21.61;40.03;102064.94;4963437;28;51223;-44
2021/11/15 08:12:53;;;;;;;;;15.50;14.25;;;;;21.58;39.93;102076.38;4972653;28;51070;-44
2021/11/15 08:15:21;;;;;;;;;13.75;12.00;;;;;21.54;39.85;102069.53;4992037;28;51380;-43
2021/11/15 08:17:49;;;;;;;;;18.75;13.50;;;;;21.51;40.45;102069.94;4983273;28;53192;-49
2021/11/15 08:20:18;;;;;;;;;16.25;13.75;;;;;21.48;40.54;102064.84;4953683;28;51081;-45
2021/11/15 08:22:47;;;;;;;;;15.50;13.00;;;;;21.45;40.39;102066.06;4955354;27;51103;-47
2021/11/15 08:25:34;;;;;;;;;12.50;11.25;;;;;21.44;40.32;102071.78;4968533;28;50979;-45
2021/11/15 08:28:00;;;;;;;;;14.00;12.75;;;;;21.40;40.23;102062.22;4958533;28;51025;-43
2021/11/15 08:30:25;;;;;;;;;13.25;12.00;;;;;21.38;40.32;102070.69;4967668;28;51238;-44
2021/11/15 08:32:52;;;;;;;;;13.50;13.00;;;;;21.33;40.71;102068.53;4967684;28;51174;-46
2021/11/15 08:35:20;;;;;;;;;17.25;12.25;;;;;21.32;40.59;102066.81;4961278;28;51207;-48
2021/11/15 08:37:57;;;;;;;;;18.50;17.00;;;;;21.28;40.43;102073.78;4961738;28;52803;-50
2021/11/15 08:40:22;;;;;;;;;14.50;14.50;;;;;21.26;40.59;102075.03;4965476;28;51021;-44
2021/11/15 08:42:48;;;;;;;;;12.50;11.75;;;;;21.22;40.72;102062.66;4959449;28;51339;-48
2021/11/15 08:45:15;;;;;;;;;11.25;11.00;;;;;21.20;40.92;102068.38;4978307;28;51214;-44
2021/11/15 08:47:40;;;;;;;;;15.50;11.50;;;;;21.19;40.57;102066.66;4969042;28;52904;-47
2021/11/15 08:50:06;;;;;;;;;15.00;11.75;;;;;21.17;40.78;102066.03;4960875;28;51055;-47
2021/11/15 08:52:31;;;;;;;;;12.00;11.25;;;;;21.16;40.96;102066.22;4986424;28;51192;-46
2021/11/15 08:54:58;;;;;;;;;10.50;8.00;;;;;21.14;40.83;102069.16;4970392;28;51169;-46
2021/11/15 08:57:23;;;;;;;;;14.75;11.50;;;;;21.12;40.69;102064.91;4960715;28;51144;-44
2021/11/15 08:59:48;;;;;;;;;13.50;12.00;;;;;21.11;40.57;102063.19;4954461;28;51136;-46
2021/11/15 09:02:14;;;;;;;;;17.25;13.50;;;;;21.08;40.79;102064.44;4961666;28;51101;-45
2021/11/15 09:04:39;;;;;;;;;14.25;11.75;;;;;21.07;40.88;102065.50;4954914;28;50922;-48
2021/11/15 09:07:06;;;;;;;;;14.25;8.25;;;;;21.04;40.83;102071.38;4960004;28;51054;-45
2021/11/15 09:09:32;;;;;;;;;12.50;11.00;;;;;21.02;40.28;102063.31;4972157;28;51076;-46
2021/11/15 09:11:58;;;;;;;;;12.50;10.50;;;;;21.00;40.86;102059.91;4962655;28;51461;-44
2021/11/15 09:14:25;;;;;;;;;13.50;13.50;;;;;21.00;41.00;102064.56;4968147;28;51550;-48
2021/11/15 09:16:51;;;;;;;;;15.25;14.50;;;;;20.98;40.58;102056.50;4966288;28;51980;-47
2021/11/15 09:19:18;;;;;;;;;17.00;11.50;;;;;20.97;40.95;102062.22;4971327;28;51425;-45
2021/11/15 09:21:45;;;;;;;;;16.25;11.50;;;;;20.95;40.72;102056.06;4971197;28;51148;-46
2021/11/15 09:24:10;;;;;;;;;18.50;14.50;;;;;20.92;40.51;102054.53;4972467;28;50988;-46
2021/11/15 09:26:36;;;;;;;;;15.00;13.25;;;;;20.91;40.68;102057.47;4962122;28;52618;-46
2021/11/15 09:29:04;;;;;;;;;17.25;13.50;;;;;20.89;40.56;102059.59;4953377;28;51032;-48
2021/11/15 09:31:30;;;;;;;;;19.00;17.00;;;;;20.87;40.92;102056.19;4968768;28;50986;-44
2021/11/15 09:33:56;;;;;;;;;17.00;14.75;;;;;20.85;40.70;102059.13;4962895;28;51074;-45
2021/11/15 09:36:23;;;;;;;;;18.75;16.75;;;;;20.82;40.67;102059.50;4971914;28;50999;-44
2021/11/15 09:38:50;;;;;;;;;16.50;15.00;;;;;20.81;40.12;102057.81;4971942;28;51111;-43
2021/11/15 09:41:16;;;;;;;;;17.75;14.75;;;;;20.78;40.74;102055.44;4972373;28;51472;-48
2021/11/15 09:43:42;;;;;;;;;14.00;13.75;;;;;20.77;40.30;102052.91;4960257;28;51663;-47
2021/11/15 09:46:11;;;;;;;;;17.00;14.75;;;;;20.74;41.01;102060.50;4954249;28;51352;-45
2021/11/15 09:48:41;;;;;;;;;16.00;12.75;;;;;20.75;41.01;102066.88;4969276;28;51117;-47
2021/11/15 09:51:08;;;;;;;;;13.25;10.00;;;;;20.73;40.63;102068.94;4964467;28;51328;-44
2021/11/15 09:53:34;;;;;;;;;17.00;13.75;;;;;20.72;40.75;102072.75;4957354;28;50995;-48
2021/11/15 09:56:01;;;;;;;;;8.75;8.00;;;;;20.73;41.23;102071.69;4963041;28;51153;-47
2021/11/15 09:58:27;;;;;;;;;19.25;15.25;;;;;20.70;40.83;102067.44;4960785;28;50974;-46
2021/11/15 10:00:53;;;;;;;;;12.25;9.50;;;;;20.70;41.03;102074.84;4967588;28;51093;-44
2021/11/15 10:03:18;;;;;;;;;13.00;9.75;;;;;20.70;40.96;102089.47;4967286;28;50958;-46
2021/11/15 10:05:45;;;;;;;;;8.75;8.75;;;;;20.69;40.83;102082.25;4974398;28;52894;-46
2021/11/15 10:08:12;;;;;;;;;7.00;7.00;;;;;20.70;41.46;102083.09;4952007;28;51003;-49
2021/11/15 10:10:46;;;;;;;;;12.75;9.75;;;;;20.74;41.43;102076.19;4952555;28;51051;-46
2021/11/15 10:13:20;;;;;;;;;13.00;9.50;;;;;20.75;41.98;102064.97;4970850;28;51262;-43
2021/11/15 10:16:10;;;;;;;;;12.25;10.75;;;;;20.77;41.42;102066.66;4963396;28;52105;-47
2021/11/15 10:18:41;;;;;;;;;18.50;10.00;;;;;20.77;42.24;102066.66;4967948;28;51454;-47
2021/11/15 10:21:11;;;;;;;;;26.50;12.00;;;;;20.76;42.12;102063.06;4956053;28;51407;-47
2021/11/15 10:23:39;;;;;;;;;16.25;11.75;;;;;20.77;41.91;102062.00;4967741;28;51182;-42
2021/11/15 10:26:23;;;;;;;;;15.50;9.50;;;;;20.77;41.81;102064.75;4965283;28;51261;-45
2021/11/15 10:28:55;;;;;;;;;10.25;9.25;;;;;20.78;41.48;102062.84;4954869;28;51025;-46
2021/11/15 10:31:29;;;;;;;;;11.00;10.00;;;;;20.77;41.72;102059.25;4955207;28;51410;-43
2021/11/15 10:33:55;;;;;;;;;20.75;11.25;;;;;20.76;42.19;102057.56;4972701;27;51081;-46
2021/11/15 10:36:45;;;;;;;;;14.75;11.25;;;;;20.75;41.93;102069.63;4960080;28;51689;-48
2021/11/15 10:39:10;;;;;;;;;11.75;10.25;;;;;20.74;41.65;102068.75;4958121;28;51062;-48
2021/11/15 10:41:36;;;;;;;;;13.75;10.25;;;;;20.72;41.69;102054.31;4969216;28;50920;-49
2021/11/15 10:44:05;;;;;;;;;15.25;10.00;;;;;20.72;41.40;102059.81;4969489;28;51554;-44
2021/11/15 10:46:36;;;;;;;;;9.75;8.50;;;;;20.72;41.77;102061.72;4960081;28;52585;-46
2021/11/15 10:49:05;;;;;;;;;15.75;10.50;;;;;20.71;41.16;102051.75;4961908;28;51454;-45
2021/11/15 10:51:58;;;;;;;;;13.25;10.75;;;;;20.70;41.39;102052.81;4963437;28;51157;-44
2021/11/15 10:57:17;;;;;;;;;13.75;9.75;;;;;20.66;41.54;102048.75;4964335;28;51403;-45
2021/11/15 10:59:42;;;;;;;;;13.00;10.00;;;;;20.64;41.44;102046.19;4968399;28;51194;-43
2021/11/15 11:02:28;;;;;;;;;9.75;8.75;;;;;20.64;40.84;102048.09;4965676;28;51123;-46
2021/11/15 11:05:06;;;;;;;;;12.50;7.50;;;;;20.63;41.14;102040.84;4964506;28;51275;-45
2021/11/15 11:07:32;;;;;;;;;11.75;9.50;;;;;20.61;41.28;102042.97;4971593;28;51882;-41
2021/11/15 11:10:02;;;;;;;;;12.75;9.25;;;;;20.59;41.51;102042.31;4966044;28;51194;-45
2021/11/15 11:12:40;;;;;;;;;3.25;1.25;;;;;20.58;41.19;102041.47;4969676;28;51220;-43
2021/11/15 11:15:50;;;;;;;;;11.25;10.00;;;;;20.57;41.11;102034.25;4966064;28;50966;-42
2021/11/15 11:26:27;;;;;;;;;18.00;15.00;;;;;20.58;41.18;102035.94;4963503;28;51241;-43
2021/11/15 11:28:57;;;;;;;;;24.75;15.25;;;;;20.58;41.10;102043.34;4958773;28;51866;-46